Startpagina
METAR-TAF:

METAR-TAF

Vliegvelden :

Luchthaven Irkoetsk

Irkoetsk, Rusland

breedte: 52-16N, lengte: 104-19E, hoogte: 513 m

Actueel weer

Dit bericht is 14 minuten geleden gemaakt, om 23:00 UTC
Weinig wind
Temperatuur 6°C
Vochtigheid 87%
Druk 1015 hPa
Zicht 10 km of meer
geen wolken onder 1500 m en geen cumulonimbus

METAR: UIII 262300Z 00000MPS CAVOK 06/04 Q1015 R12/CLRD60 NOSIG RMK QFE718/0958

Tijdstip: 07:14 (23:14 UTC)

Verwachting

Dit bericht is 3 uur en het 14 minuten geleden gemaakt, om 20:00 UTC
Verwachting geldig van 26 om 21 UTC tot 27 om 21 UTC
Wind 6 kt uit het oostnoordoosten
Zicht 10 km of meer
Tijdelijke
van 26 om 21 UTC tot 27 om 02 UTC
Zicht: 0300 m
op 100 ft
mist
Wijzigt naar
van 27 om 02 UTC tot 27 om 04 UTC
Wind 10 kt uit het zuidzuidoosten

TAF: UIII 262000Z 2621/2721 06003MPS 9999 NSC TEMPO 2621/2702 0300 FG VV001 BECMG 2702/2704 16005MPS

Waarnemingen en weersverwachtingen van meer dan 4000 vliegvelden (METAR en TAF).

De beschikbare stations zijn de gele en rode punten op de kaart.

Ga met uw muis naar het station om de naam te zien.

Klik dan om waarnemingen en weersverwachtingen te zien.

kaart wijzigen: klik op de groene knoppen met een zwart kruis om in te zoomen, op de groene knop met een streepje om uit te zoomen of op de groene pijlen voor aangrenzende kaarten.


METAR-TAF: